sensor_id;sensor_type;location;lat;lon;timestamp;pressure;altitude;pressure_sealevel;temperature;humidity
48792;BME280;34587;48.816;9.420;2023-02-02T00:00:14;99414.38;;;5.06;74.06
48792;BME280;34587;48.816;9.420;2023-02-02T00:02:39;99418.63;;;5.06;74.09
48792;BME280;34587;48.816;9.420;2023-02-02T00:05:04;99416.97;;;5.08;73.76
48792;BME280;34587;48.816;9.420;2023-02-02T00:07:30;99408.44;;;5.12;73.89
48792;BME280;34587;48.816;9.420;2023-02-02T00:09:55;99402.44;;;5.08;74.45
48792;BME280;34587;48.816;9.420;2023-02-02T00:12:20;99409.28;;;5.09;73.72
48792;BME280;34587;48.816;9.420;2023-02-02T00:14:46;99393.00;;;5.09;73.94
48792;BME280;34587;48.816;9.420;2023-02-02T00:17:11;99398.09;;;5.06;73.97
48792;BME280;34587;48.816;9.420;2023-02-02T00:19:36;99401.44;;;4.99;74.18
48792;BME280;34587;48.816;9.420;2023-02-02T00:22:01;99395.53;;;5.06;74.04
48792;BME280;34587;48.816;9.420;2023-02-02T00:24:27;99399.75;;;5.02;74.27
48792;BME280;34587;48.816;9.420;2023-02-02T00:26:55;99399.81;;;5.07;74.11
48792;BME280;34587;48.816;9.420;2023-02-02T00:29:27;99400.78;;;5.13;74.26
48792;BME280;34587;48.816;9.420;2023-02-02T00:31:53;99400.66;;;5.06;74.81
48792;BME280;34587;48.816;9.420;2023-02-02T00:34:19;99403.22;;;5.06;74.86
48792;BME280;34587;48.816;9.420;2023-02-02T00:36:45;99411.88;;;5.11;74.24
48792;BME280;34587;48.816;9.420;2023-02-02T00:39:21;99397.19;;;5.02;74.99
48792;BME280;34587;48.816;9.420;2023-02-02T00:41:47;99399.00;;;5.08;75.46
48792;BME280;34587;48.816;9.420;2023-02-02T00:44:12;99396.19;;;4.93;75.74
48792;BME280;34587;48.816;9.420;2023-02-02T00:46:56;99400.56;;;4.98;75.48
48792;BME280;34587;48.816;9.420;2023-02-02T00:49:22;99401.38;;;4.96;76.50
48792;BME280;34587;48.816;9.420;2023-02-02T00:51:47;99398.00;;;5.00;76.60
48792;BME280;34587;48.816;9.420;2023-02-02T00:54:13;99389.31;;;4.90;77.00
48792;BME280;34587;48.816;9.420;2023-02-02T00:56:39;99390.25;;;4.97;77.21
48792;BME280;34587;48.816;9.420;2023-02-02T00:59:04;99394.44;;;4.88;77.17
48792;BME280;34587;48.816;9.420;2023-02-02T05:17:39;99461.44;;;5.67;79.15
48792;BME280;34587;48.816;9.420;2023-02-02T05:20:04;99467.38;;;5.62;79.28
48792;BME280;34587;48.816;9.420;2023-02-02T05:22:29;99470.94;;;5.73;78.94
48792;BME280;34587;48.816;9.420;2023-02-02T05:24:55;99458.88;;;5.69;79.16
48792;BME280;34587;48.816;9.420;2023-02-02T05:27:20;99466.66;;;5.74;78.72
48792;BME280;34587;48.816;9.420;2023-02-02T05:29:46;99465.72;;;5.67;78.90
48792;BME280;34587;48.816;9.420;2023-02-02T05:32:11;99463.16;;;5.68;78.72
48792;BME280;34587;48.816;9.420;2023-02-02T05:34:37;99464.16;;;5.78;78.32
48792;BME280;34587;48.816;9.420;2023-02-02T05:37:02;99474.38;;;5.72;78.32
48792;BME280;34587;48.816;9.420;2023-02-02T05:39:27;99474.44;;;5.78;78.79
48792;BME280;34587;48.816;9.420;2023-02-02T05:41:52;99470.94;;;5.73;78.94
48792;BME280;34587;48.816;9.420;2023-02-02T05:44:18;99470.88;;;5.70;78.94
48792;BME280;34587;48.816;9.420;2023-02-02T05:46:43;99476.16;;;5.79;78.75
48792;BME280;34587;48.816;9.420;2023-02-02T05:49:12;99467.53;;;5.74;78.56
48792;BME280;34587;48.816;9.420;2023-02-02T05:51:49;99478.72;;;5.78;78.79
48792;BME280;34587;48.816;9.420;2023-02-02T05:54:16;99486.38;;;5.73;78.89
48792;BME280;34587;48.816;9.420;2023-02-02T05:56:48;99491.63;;;5.82;78.05
48792;BME280;34587;48.816;9.420;2023-02-02T05:59:14;99485.63;;;5.80;78.55
48792;BME280;34587;48.816;9.420;2023-02-02T06:01:39;99486.50;;;5.82;78.43
48792;BME280;34587;48.816;9.420;2023-02-02T06:04:04;99487.28;;;5.77;79.08
48792;BME280;34587;48.816;9.420;2023-02-02T06:06:30;99481.28;;;5.79;78.75
48792;BME280;34587;48.816;9.420;2023-02-02T06:08:55;99490.78;;;5.83;78.67
48792;BME280;34587;48.816;9.420;2023-02-02T06:11:20;99494.19;;;5.81;78.83
48792;BME280;34587;48.816;9.420;2023-02-02T06:13:46;99492.41;;;5.77;79.60
48792;BME280;34587;48.816;9.420;2023-02-02T06:16:11;99495.00;;;5.80;78.94
48792;BME280;34587;48.816;9.420;2023-02-02T06:18:36;99500.97;;;5.76;79.04
48792;BME280;34587;48.816;9.420;2023-02-02T06:21:03;99508.84;;;5.86;78.62
48792;BME280;34587;48.816;9.420;2023-02-02T06:23:31;99503.63;;;5.80;78.93
48792;BME280;34587;48.816;9.420;2023-02-02T06:25:56;99507.91;;;5.83;78.66
48792;BME280;34587;48.816;9.420;2023-02-02T06:28:22;99508.78;;;5.83;78.86
48792;BME280;34587;48.816;9.420;2023-02-02T06:30:47;99505.47;;;5.90;77.98
48792;BME280;34587;48.816;9.420;2023-02-02T06:33:12;99519.06;;;5.83;78.50
48792;BME280;34587;48.816;9.420;2023-02-02T06:35:37;99519.06;;;5.83;78.58
48792;BME280;34587;48.816;9.420;2023-02-02T06:38:03;99523.34;;;5.84;78.42
48792;BME280;34587;48.816;9.420;2023-02-02T06:40:28;99517.34;;;5.82;78.81
48792;BME280;34587;48.816;9.420;2023-02-02T06:43:01;99525.84;;;5.78;79.02
48792;BME280;34587;48.816;9.420;2023-02-02T06:45:28;99511.34;;;5.82;78.68
48792;BME280;34587;48.816;9.420;2023-02-02T06:47:58;99521.63;;;5.80;79.18
48792;BME280;34587;48.816;9.420;2023-02-02T06:50:25;99524.19;;;5.80;79.15
48792;BME280;34587;48.816;9.420;2023-02-02T06:52:51;99524.22;;;5.83;79.02
48792;BME280;34587;48.816;9.420;2023-02-02T06:55:17;99534.53;;;5.86;78.59
48792;BME280;34587;48.816;9.420;2023-02-02T06:57:43;99527.63;;;5.82;78.69
48792;BME280;34587;48.816;9.420;2023-02-02T07:00:09;99522.53;;;5.85;78.83
48792;BME280;34587;48.816;9.420;2023-02-02T07:02:34;99522.63;;;5.91;78.56
48792;BME280;34587;48.816;9.420;2023-02-02T07:05:00;99527.63;;;5.82;78.64
48792;BME280;34587;48.816;9.420;2023-02-02T07:07:25;99522.50;;;5.82;78.33
48792;BME280;34587;48.816;9.420;2023-02-02T07:09:50;99515.63;;;5.81;78.72
48792;BME280;34587;48.816;9.420;2023-02-02T07:12:16;99526.03;;;5.90;78.35
48792;BME280;34587;48.816;9.420;2023-02-02T07:14:43;99528.50;;;5.83;78.68
48792;BME280;34587;48.816;9.420;2023-02-02T07:17:09;99525.22;;;5.93;78.01
48792;BME280;34587;48.816;9.420;2023-02-02T07:19:34;99524.38;;;5.92;77.77
48792;BME280;34587;48.816;9.420;2023-02-02T07:21:59;99532.94;;;5.91;78.02
48792;BME280;34587;48.816;9.420;2023-02-02T07:24:25;99530.38;;;5.93;77.75
48792;BME280;34587;48.816;9.420;2023-02-02T07:26:51;99524.41;;;5.96;77.17
48792;BME280;34587;48.816;9.420;2023-02-02T07:29:17;99531.19;;;5.90;77.97
48792;BME280;34587;48.816;9.420;2023-02-02T07:31:42;99536.41;;;5.97;77.36
48792;BME280;34587;48.816;9.420;2023-02-02T07:34:07;99533.00;;;5.98;77.74
48792;BME280;34587;48.816;9.420;2023-02-02T07:36:33;99536.47;;;6.00;77.29
48792;BME280;34587;48.816;9.420;2023-02-02T07:38:58;99539.84;;;5.97;77.49
48792;BME280;34587;48.816;9.420;2023-02-02T07:41:26;99539.06;;;6.01;77.04
48792;BME280;34587;48.816;9.420;2023-02-02T07:43:52;99539.97;;;6.05;77.47
48792;BME280;34587;48.816;9.420;2023-02-02T07:46:18;99537.34;;;6.02;77.27
48792;BME280;34587;48.816;9.420;2023-02-02T07:48:43;99534.78;;;6.02;76.98
48792;BME280;34587;48.816;9.420;2023-02-02T07:51:14;99547.63;;;6.03;76.90
48792;BME280;34587;48.816;9.420;2023-02-02T07:53:44;99533.94;;;6.04;76.56
48792;BME280;34587;48.816;9.420;2023-02-02T07:56:12;99545.09;;;6.05;76.95
48792;BME280;34587;48.816;9.420;2023-02-02T07:58:38;99537.47;;;6.12;76.96
48792;BME280;34587;48.816;9.420;2023-02-02T08:01:05;99522.78;;;6.04;76.18
48792;BME280;34587;48.816;9.420;2023-02-02T08:03:31;99535.69;;;6.08;76.51
48792;BME280;34587;48.816;9.420;2023-02-02T08:05:57;99525.44;;;6.10;76.39
48792;BME280;34587;48.816;9.420;2023-02-02T08:08:23;99522.88;;;6.10;76.44
48792;BME280;34587;48.816;9.420;2023-02-02T08:10:49;99515.16;;;6.11;76.47
48792;BME280;34587;48.816;9.420;2023-02-02T08:13:15;99519.44;;;6.11;75.89
48792;BME280;34587;48.816;9.420;2023-02-02T08:15:40;99521.13;;;6.09;76.12
48792;BME280;34587;48.816;9.420;2023-02-02T08:18:05;99526.44;;;6.21;75.95
48792;BME280;34587;48.816;9.420;2023-02-02T08:20:31;99534.09;;;6.15;75.48
48792;BME280;34587;48.816;9.420;2023-02-02T08:22:56;99537.53;;;6.17;75.80
48792;BME280;34587;48.816;9.420;2023-02-02T08:25:21;99536.59;;;6.12;75.92
48792;BME280;34587;48.816;9.420;2023-02-02T08:27:47;99538.38;;;6.16;75.70
48792;BME280;34587;48.816;9.420;2023-02-02T08:30:12;99551.31;;;6.22;75.36
48792;BME280;34587;48.816;9.420;2023-02-02T08:32:38;99564.09;;;6.16;75.77
48792;BME280;34587;48.816;9.420;2023-02-02T08:35:04;99561.53;;;6.17;76.43
48792;BME280;34587;48.816;9.420;2023-02-02T08:37:30;99564.66;;;5.92;77.72
48792;BME280;34587;48.816;9.420;2023-02-02T08:39:55;99576.50;;;5.82;78.80
48792;BME280;34587;48.816;9.420;2023-02-02T08:42:20;99581.56;;;5.79;79.08
48792;BME280;34587;48.816;9.420;2023-02-02T08:44:45;99581.50;;;5.73;79.84
48792;BME280;34587;48.816;9.420;2023-02-02T08:47:11;99590.78;;;5.65;80.04
48792;BME280;34587;48.816;9.420;2023-02-02T08:49:36;99585.63;;;5.62;80.50
48792;BME280;34587;48.816;9.420;2023-02-02T08:52:01;99589.13;;;5.67;80.16
48792;BME280;34587;48.816;9.420;2023-02-02T08:54:27;99583.09;;;5.65;80.67
48792;BME280;34587;48.816;9.420;2023-02-02T08:56:53;99591.63;;;5.61;80.69
48792;BME280;34587;48.816;9.420;2023-02-02T08:59:18;99599.28;;;5.58;80.59
48792;BME280;34587;48.816;9.420;2023-02-02T09:01:43;99593.34;;;5.62;80.77
48792;BME280;34587;48.816;9.420;2023-02-02T09:04:13;99605.25;;;5.57;81.06
48792;BME280;34587;48.816;9.420;2023-02-02T09:06:40;99602.78;;;5.63;81.14
48792;BME280;34587;48.816;9.420;2023-02-02T09:09:08;99600.19;;;5.61;80.78
48792;BME280;34587;48.816;9.420;2023-02-02T09:11:34;99596.00;;;5.68;80.62
48792;BME280;34587;48.816;9.420;2023-02-02T09:14:00;99603.00;;;5.78;80.03
48792;BME280;34587;48.816;9.420;2023-02-02T09:16:27;99611.72;;;5.89;78.69
48792;BME280;34587;48.816;9.420;2023-02-02T09:18:53;99603.50;;;6.12;76.88
48792;BME280;34587;48.816;9.420;2023-02-02T09:21:19;99595.91;;;6.23;76.80
48792;BME280;34587;48.816;9.420;2023-02-02T09:23:45;99603.66;;;6.24;76.06
48792;BME280;34587;48.816;9.420;2023-02-02T09:26:19;99604.53;;;6.28;75.81
48792;BME280;34587;48.816;9.420;2023-02-02T09:28:48;99595.97;;;6.26;76.10
48792;BME280;34587;48.816;9.420;2023-02-02T09:31:13;99596.00;;;6.29;76.50
48792;BME280;34587;48.816;9.420;2023-02-02T09:33:39;99588.41;;;6.41;75.89
48792;BME280;34587;48.816;9.420;2023-02-02T09:36:07;99588.38;;;6.36;75.51
48792;BME280;34587;48.816;9.420;2023-02-02T09:38:33;99597.00;;;6.41;75.13
48792;BME280;34587;48.816;9.420;2023-02-02T09:40:59;99598.78;;;6.46;75.60
48792;BME280;34587;48.816;9.420;2023-02-02T09:43:46;99609.88;;;6.41;75.91
48792;BME280;34587;48.816;9.420;2023-02-02T09:46:22;99614.22;;;6.46;75.24
48792;BME280;34587;48.816;9.420;2023-02-02T09:48:56;99614.16;;;6.39;75.33
48792;BME280;34587;48.816;9.420;2023-02-02T09:51:27;99610.84;;;6.50;75.99
48792;BME280;34587;48.816;9.420;2023-02-02T09:54:01;99619.31;;;6.39;75.59
48792;BME280;34587;48.816;9.420;2023-02-02T09:56:56;99628.75;;;6.42;75.85
48792;BME280;34587;48.816;9.420;2023-02-02T09:59:42;99627.88;;;6.41;76.21
48792;BME280;34587;48.816;9.420;2023-02-02T10:02:35;99632.22;;;6.44;76.36
48792;BME280;34587;48.816;9.420;2023-02-02T10:05:21;99638.16;;;6.38;76.46
48792;BME280;34587;48.816;9.420;2023-02-02T10:07:52;99634.69;;;6.36;76.61
48792;BME280;34587;48.816;9.420;2023-02-02T10:10:22;99630.41;;;6.35;76.80
48792;BME280;34587;48.816;9.420;2023-02-02T10:12:58;99636.41;;;6.34;76.92
48792;BME280;34587;48.816;9.420;2023-02-02T10:15:43;99637.25;;;6.36;77.84
48792;BME280;34587;48.816;9.420;2023-02-02T10:18:18;99639.78;;;6.30;77.81
48792;BME280;34587;48.816;9.420;2023-02-02T10:20:50;99634.63;;;6.32;77.94
48792;BME280;34587;48.816;9.420;2023-02-02T10:25:54;99638.03;;;6.29;77.92
48792;BME280;34587;48.816;9.420;2023-02-02T10:28:28;99644.19;;;6.39;77.40
48792;BME280;34587;48.816;9.420;2023-02-02T10:31:00;99641.56;;;6.37;77.88
48792;BME280;34587;48.816;9.420;2023-02-02T10:33:38;99642.47;;;6.42;77.26
48792;BME280;34587;48.816;9.420;2023-02-02T10:36:14;99643.31;;;6.38;77.08
48792;BME280;34587;48.816;9.420;2023-02-02T10:41:39;99645.03;;;6.39;77.74
48792;BME280;34587;48.816;9.420;2023-02-02T10:44:25;99657.13;;;6.47;77.57
48792;BME280;34587;48.816;9.420;2023-02-02T10:46:55;99652.63;;;6.30;78.67
48792;BME280;34587;48.816;9.420;2023-02-02T10:49:36;99652.72;;;6.38;79.97
48792;BME280;34587;48.816;9.420;2023-02-02T11:02:33;99653.09;;;6.02;98.17
48792;BME280;34587;48.816;9.420;2023-02-02T11:04:59;99647.88;;;5.96;98.20
48792;BME280;34587;48.816;9.420;2023-02-02T11:07:42;99653.88;;;5.96;98.13
48792;BME280;34587;48.816;9.420;2023-02-02T11:10:08;99647.88;;;5.96;94.57
48792;BME280;34587;48.816;9.420;2023-02-02T11:12:36;99650.00;;;6.24;89.98
48792;BME280;34587;48.816;9.420;2023-02-02T11:15:07;99655.00;;;6.15;85.66
48792;BME280;34587;48.816;9.420;2023-02-02T11:17:46;99647.19;;;6.09;84.11
48792;BME280;34587;48.816;9.420;2023-02-02T11:20:32;99649.88;;;6.15;83.93
48792;BME280;34587;48.816;9.420;2023-02-02T11:22:59;99649.88;;;6.18;82.85
48792;BME280;34587;48.816;9.420;2023-02-02T11:25:32;99648.22;;;6.20;82.22
48792;BME280;34587;48.816;9.420;2023-02-02T11:28:00;99653.34;;;6.20;81.24
48792;BME280;34587;48.816;9.420;2023-02-02T11:30:30;99653.38;;;6.23;81.57
48792;BME280;34587;48.816;9.420;2023-02-02T11:32:57;99647.44;;;6.27;81.30
48792;BME280;34587;48.816;9.420;2023-02-02T11:35:25;99656.13;;;6.34;80.93
48792;BME280;34587;48.816;9.420;2023-02-02T11:38:13;99651.78;;;6.31;80.55
48792;BME280;34587;48.816;9.420;2023-02-02T11:40:44;99641.50;;;6.31;80.03
48792;BME280;34587;48.816;9.420;2023-02-02T11:43:19;99646.66;;;6.33;80.69
48792;BME280;34587;48.816;9.420;2023-02-02T11:45:50;99655.22;;;6.30;80.13
48792;BME280;34587;48.816;9.420;2023-02-02T11:48:19;99654.44;;;6.37;80.24
48792;BME280;34587;48.816;9.420;2023-02-02T11:50:48;99648.28;;;6.26;80.97
48792;BME280;34587;48.816;9.420;2023-02-02T11:53:26;99643.22;;;6.32;79.72
48792;BME280;34587;48.816;9.420;2023-02-02T11:55:54;99644.91;;;6.30;80.15
48792;BME280;34587;48.816;9.420;2023-02-02T11:58:25;99641.47;;;6.30;78.59
48792;BME280;34587;48.816;9.420;2023-02-02T12:01:02;99642.34;;;6.29;79.16
48792;BME280;34587;48.816;9.420;2023-02-02T12:03:36;99642.34;;;6.33;79.06
48792;BME280;34587;48.816;9.420;2023-02-02T12:06:19;99648.28;;;6.26;79.83
48792;BME280;34587;48.816;9.420;2023-02-02T12:08:45;99646.56;;;6.25;80.01
48792;BME280;34587;48.816;9.420;2023-02-02T12:14:32;99647.41;;;6.24;80.38
48792;BME280;34587;48.816;9.420;2023-02-02T12:22:22;99659.22;;;6.11;82.01
48792;BME280;34587;48.816;9.420;2023-02-02T12:24:56;99637.00;;;6.16;80.72
48792;BME280;34587;48.816;9.420;2023-02-02T12:33:06;99635.22;;;6.12;81.52
48792;BME280;34587;48.816;9.420;2023-02-02T12:36:09;99634.25;;;6.03;82.92
48792;BME280;34587;48.816;9.420;2023-02-02T12:38:58;99630.81;;;6.04;82.15
48792;BME280;34587;48.816;9.420;2023-02-02T12:44:25;99639.38;;;6.03;82.58
48792;BME280;34587;48.816;9.420;2023-02-02T12:47:23;99640.84;;;5.88;83.67
48792;BME280;34587;48.816;9.420;2023-02-02T12:50:03;99637.34;;;5.83;84.39
48792;BME280;34587;48.816;9.420;2023-02-02T12:55:13;99642.34;;;5.74;83.91
48792;BME280;34587;48.816;9.420;2023-02-02T13:00:32;99641.47;;;5.71;86.42
48792;BME280;34587;48.816;9.420;2023-02-02T13:03:30;99641.34;;;5.64;86.48
48792;BME280;34587;48.816;9.420;2023-02-02T13:08:59;99638.69;;;5.58;87.73
48792;BME280;34587;48.816;9.420;2023-02-02T13:14:34;99650.84;;;5.67;86.89
48792;BME280;34587;48.816;9.420;2023-02-02T13:17:08;99647.34;;;5.65;87.42
48792;BME280;34587;48.816;9.420;2023-02-02T13:19:39;99646.41;;;5.60;87.56
48792;BME280;34587;48.816;9.420;2023-02-02T13:22:09;99649.84;;;5.59;88.00
48792;BME280;34587;48.816;9.420;2023-02-02T13:24:39;99657.47;;;5.53;88.59
48792;BME280;34587;48.816;9.420;2023-02-02T13:27:09;99643.69;;;5.51;89.10
48792;BME280;34587;48.816;9.420;2023-02-02T13:29:41;99651.56;;;5.60;89.34
48792;BME280;34587;48.816;9.420;2023-02-02T13:32:33;99661.03;;;5.61;89.63
48792;BME280;34587;48.816;9.420;2023-02-02T13:35:17;99650.84;;;5.67;87.49
48792;BME280;34587;48.816;9.420;2023-02-02T13:40:27;99655.19;;;5.73;87.77
48792;BME280;34587;48.816;9.420;2023-02-02T13:54:34;99678.50;;;5.83;86.00
48792;BME280;34587;48.816;9.420;2023-02-02T14:02:48;99691.53;;;5.92;85.67
48792;BME280;34587;48.816;9.420;2023-02-02T14:05:23;99696.75;;;5.97;85.06
48792;BME280;34587;48.816;9.420;2023-02-02T14:07:55;99697.69;;;6.01;84.24
48792;BME280;34587;48.816;9.420;2023-02-02T14:10:29;99692.66;;;6.10;84.26
48792;BME280;34587;48.816;9.420;2023-02-02T14:13:05;99699.41;;;6.02;84.08
48792;BME280;34587;48.816;9.420;2023-02-02T14:15:38;99693.47;;;6.07;83.50
48792;BME280;34587;48.816;9.420;2023-02-02T14:18:05;99698.69;;;6.13;83.15
48792;BME280;34587;48.816;9.420;2023-02-02T14:20:45;99701.19;;;6.09;83.45
48792;BME280;34587;48.816;9.420;2023-02-02T14:23:48;99702.97;;;6.10;82.93
48792;BME280;34587;48.816;9.420;2023-02-02T14:26:18;99693.59;;;6.15;83.39
48792;BME280;34587;48.816;9.420;2023-02-02T14:28:47;99701.31;;;6.16;82.94
48792;BME280;34587;48.816;9.420;2023-02-02T14:31:50;99706.47;;;6.15;82.96
48792;BME280;34587;48.816;9.420;2023-02-02T14:34:38;99714.19;;;6.16;81.97
48792;BME280;34587;48.816;9.420;2023-02-02T14:45:38;99719.22;;;6.09;83.58
48792;BME280;34587;48.816;9.420;2023-02-02T14:58:22;99727.72;;;6.03;83.99
48792;BME280;34587;48.816;9.420;2023-02-02T15:00:59;99728.47;;;5.98;84.75
48792;BME280;34587;48.816;9.420;2023-02-02T15:03:45;99727.06;;;6.18;82.47
48792;BME280;34587;48.816;9.420;2023-02-02T15:06:37;99728.72;;;6.13;82.30
48792;BME280;34587;48.816;9.420;2023-02-02T15:17:44;99734.22;;;6.37;80.18
48792;BME280;34587;48.816;9.420;2023-02-02T15:23:13;99743.66;;;6.37;80.73
48792;BME280;34587;48.816;9.420;2023-02-02T15:26:03;99745.31;;;6.33;80.18
48792;BME280;34587;48.816;9.420;2023-02-02T15:34:24;99747.13;;;6.39;78.97
48792;BME280;34587;48.816;9.420;2023-02-02T15:36:54;99754.03;;;6.43;78.86
48792;BME280;34587;48.816;9.420;2023-02-02T15:39:32;99752.22;;;6.36;79.42
48792;BME280;34587;48.816;9.420;2023-02-02T15:42:03;99763.31;;;6.33;78.93
48792;BME280;34587;48.816;9.420;2023-02-02T15:44:49;99764.31;;;6.43;77.93
48792;BME280;34587;48.816;9.420;2023-02-02T15:47:16;99768.72;;;6.49;77.64
48792;BME280;34587;48.816;9.420;2023-02-02T15:49:43;99778.88;;;6.39;78.15
48792;BME280;34587;48.816;9.420;2023-02-02T15:52:22;99777.19;;;6.41;77.79
48792;BME280;34587;48.816;9.420;2023-02-02T15:54:53;99782.34;;;6.41;78.03
48792;BME280;34587;48.816;9.420;2023-02-02T15:59:50;99786.59;;;6.39;78.18
48792;BME280;34587;48.816;9.420;2023-02-02T16:02:38;99792.72;;;6.48;77.86
48792;BME280;34587;48.816;9.420;2023-02-02T16:05:24;99790.97;;;6.43;77.54
48792;BME280;34587;48.816;9.420;2023-02-02T16:08:07;99796.09;;;6.43;77.69
48792;BME280;34587;48.816;9.420;2023-02-02T16:10:35;99799.50;;;6.42;78.19
48792;BME280;34587;48.816;9.420;2023-02-02T16:13:01;99796.06;;;6.40;78.26
48792;BME280;34587;48.816;9.420;2023-02-02T16:15:27;99802.00;;;6.36;78.30
48792;BME280;34587;48.816;9.420;2023-02-02T16:17:57;99811.44;;;6.37;77.82
48792;BME280;34587;48.816;9.420;2023-02-02T16:20:25;99823.38;;;6.32;77.96
48792;BME280;34587;48.816;9.420;2023-02-02T16:22:51;99831.16;;;6.37;77.66
48792;BME280;34587;48.816;9.420;2023-02-02T16:25:20;99840.66;;;6.39;76.88
48792;BME280;34587;48.816;9.420;2023-02-02T16:27:47;99835.53;;;6.42;76.98
48792;BME280;34587;48.816;9.420;2023-02-02T16:30:24;99839.81;;;6.40;77.19
48792;BME280;34587;48.816;9.420;2023-02-02T16:32:50;99853.34;;;6.29;78.15
48792;BME280;34587;48.816;9.420;2023-02-02T16:35:34;99848.25;;;6.32;77.93
48792;BME280;34587;48.816;9.420;2023-02-02T16:40:37;99871.28;;;6.24;78.84
48792;BME280;34587;48.816;9.420;2023-02-02T16:43:16;99865.41;;;6.33;77.66
48792;BME280;34587;48.816;9.420;2023-02-02T16:45:48;99874.03;;;6.35;78.12
48792;BME280;34587;48.816;9.420;2023-02-02T16:48:34;99876.69;;;6.39;77.81
48792;BME280;34587;48.816;9.420;2023-02-02T16:53:41;99886.00;;;6.33;77.75
48792;BME280;34587;48.816;9.420;2023-02-02T16:56:21;99893.03;;;6.43;77.93
48792;BME280;34587;48.816;9.420;2023-02-02T16:58:48;99904.25;;;6.45;77.49
48792;BME280;34587;48.816;9.420;2023-02-02T17:01:14;99904.94;;;6.36;77.92
48792;BME280;34587;48.816;9.420;2023-02-02T17:03:46;99903.34;;;6.43;77.34
48792;BME280;34587;48.816;9.420;2023-02-02T17:06:13;99910.19;;;6.42;76.56
48792;BME280;34587;48.816;9.420;2023-02-02T17:08:38;99914.47;;;6.40;77.29
48792;BME280;34587;48.816;9.420;2023-02-02T17:11:24;99926.47;;;6.41;77.35
48792;BME280;34587;48.816;9.420;2023-02-02T17:13:51;99917.13;;;6.45;76.60
48792;BME280;34587;48.816;9.420;2023-02-02T17:16:22;99909.31;;;6.40;76.85
48792;BME280;34587;48.816;9.420;2023-02-02T17:18:47;99912.03;;;6.50;76.26
48792;BME280;34587;48.816;9.420;2023-02-02T17:21:18;99918.97;;;6.54;76.59
48792;BME280;34587;48.816;9.420;2023-02-02T17:23:45;99930.00;;;6.47;76.39
48792;BME280;34587;48.816;9.420;2023-02-02T17:26:10;99936.78;;;6.41;76.64
48792;BME280;34587;48.816;9.420;2023-02-02T17:28:38;99941.06;;;6.41;76.44
48792;BME280;34587;48.816;9.420;2023-02-02T17:31:09;99953.94;;;6.42;76.99
48792;BME280;34587;48.816;9.420;2023-02-02T17:33:36;99943.63;;;6.39;77.25
48792;BME280;34587;48.816;9.420;2023-02-02T17:36:02;99959.09;;;6.42;77.05
48792;BME280;34587;48.816;9.420;2023-02-02T17:38:29;99962.47;;;6.38;76.83
48792;BME280;34587;48.816;9.420;2023-02-02T17:40:55;99957.34;;;6.38;76.89
48792;BME280;34587;48.816;9.420;2023-02-02T17:43:22;99965.06;;;6.38;76.98
48792;BME280;34587;48.816;9.420;2023-02-02T17:45:47;99960.63;;;6.31;78.00
48792;BME280;34587;48.816;9.420;2023-02-02T17:48:13;99956.41;;;6.35;77.99
48792;BME280;34587;48.816;9.420;2023-02-02T17:50:40;99970.84;;;6.28;78.17
48792;BME280;34587;48.816;9.420;2023-02-02T17:53:09;99965.66;;;6.25;78.32
48792;BME280;34587;48.816;9.420;2023-02-02T17:55:36;99970.06;;;6.32;77.97
48792;BME280;34587;48.816;9.420;2023-02-02T17:58:02;99984.53;;;6.24;77.94
48792;BME280;34587;48.816;9.420;2023-02-02T18:00:27;99977.69;;;6.26;78.35
48792;BME280;34587;48.816;9.420;2023-02-02T18:02:57;99986.28;;;6.27;78.77
48792;BME280;34587;48.816;9.420;2023-02-02T18:05:24;99990.44;;;6.20;79.20
48792;BME280;34587;48.816;9.420;2023-02-02T18:07:49;99990.38;;;6.17;79.38
48792;BME280;34587;48.816;9.420;2023-02-02T18:10:15;99992.09;;;6.16;79.33
48792;BME280;34587;48.816;9.420;2023-02-02T18:12:41;99986.94;;;6.16;79.57
48792;BME280;34587;48.816;9.420;2023-02-02T18:15:11;99994.75;;;6.21;79.45
48792;BME280;34587;48.816;9.420;2023-02-02T18:17:36;99996.38;;;6.16;79.74
48792;BME280;34587;48.816;9.420;2023-02-02T18:20:02;100001.41;;;6.10;79.95
48792;BME280;34587;48.816;9.420;2023-02-02T18:22:27;100011.69;;;6.10;79.93
48792;BME280;34587;48.816;9.420;2023-02-02T18:24:53;100010.00;;;6.12;79.59
48792;BME280;34587;48.816;9.420;2023-02-02T18:27:18;100015.09;;;6.09;80.28
48792;BME280;34587;48.816;9.420;2023-02-02T18:29:47;100008.28;;;6.11;79.73
48792;BME280;34587;48.816;9.420;2023-02-02T18:32:14;100010.00;;;6.12;79.02
48792;BME280;34587;48.816;9.420;2023-02-02T18:34:39;100013.34;;;6.06;79.31
48792;BME280;34587;48.816;9.420;2023-02-02T18:37:05;100009.91;;;6.06;79.50
48792;BME280;34587;48.816;9.420;2023-02-02T18:39:31;100013.47;;;6.14;79.44
48792;BME280;34587;48.816;9.420;2023-02-02T18:41:56;100008.16;;;6.05;79.59
48792;BME280;34587;48.816;9.420;2023-02-02T18:44:22;100001.34;;;6.07;79.14
48792;BME280;34587;48.816;9.420;2023-02-02T18:46:51;100005.72;;;6.12;78.61
48792;BME280;34587;48.816;9.420;2023-02-02T18:49:17;100009.94;;;6.09;78.86
48792;BME280;34587;48.816;9.420;2023-02-02T18:51:43;100004.13;;;6.17;78.33
48792;BME280;34587;48.816;9.420;2023-02-02T18:54:09;100004.75;;;6.06;78.61
48792;BME280;34587;48.816;9.420;2023-02-02T18:56:35;100007.38;;;6.09;78.32
48792;BME280;34587;48.816;9.420;2023-02-02T18:59:00;100011.63;;;6.07;78.72
48792;BME280;34587;48.816;9.420;2023-02-02T19:01:26;100014.09;;;6.02;79.42
48792;BME280;34587;48.816;9.420;2023-02-02T19:03:53;100016.78;;;6.08;79.01
48792;BME280;34587;48.816;9.420;2023-02-02T19:06:19;100022.75;;;6.06;78.97
48792;BME280;34587;48.816;9.420;2023-02-02T19:09:04;100018.28;;;5.97;79.46
48792;BME280;34587;48.816;9.420;2023-02-02T19:14:00;100014.19;;;6.05;78.83
48792;BME280;34587;48.816;9.420;2023-02-02T19:16:32;100011.50;;;6.01;79.14
48792;BME280;34587;48.816;9.420;2023-02-02T19:19:04;100008.16;;;6.05;78.96
48792;BME280;34587;48.816;9.420;2023-02-02T19:21:32;99999.59;;;6.06;79.08
48792;BME280;34587;48.816;9.420;2023-02-02T19:23:58;100008.94;;;6.01;78.96
48792;BME280;34587;48.816;9.420;2023-02-02T19:26:25;100012.38;;;6.01;78.99
48792;BME280;34587;48.816;9.420;2023-02-02T19:28:53;100007.28;;;6.04;78.98
48792;BME280;34587;48.816;9.420;2023-02-02T19:31:20;100006.56;;;6.10;79.17